ETS weather

Enterprise Municipal Airport
Enterprise, Alabama, United States

Public forecast

Using degrees Fahrenheit for public forecast. Weather courtesy of forecast.io.

Current aviation weather report (METAR) for Enterprise Municipal Airport

Retrieved 2020/06/02 05:35 UTC (17 minutes ago):

KEDN 020535Z AUTO 12005KT 3SM RA SCT024 SCT035 OVC046 22/22 A3017 RMK AO2 P0016 T02150215

Closest aviation forecast (TAF) to Enterprise Municipal Airport

Closest forecast is Cairns AAF (Fort Rucker) Air Field, 9.7 nm (17.9 km) E. Retrieved 2020-06-02 00:12 UTC (6 hours ago):

TAF KOZR 020000Z 0200/0306 10009KT 9999 FEW030 QNH3005INS TEMPO 0206/0210 VRB06KT 9000 -SHRA BKN025 BECMG 0213/0214 11010G15KT 9999 SCT020 QNH3021INS BECMG 0300/0301 VRB06KT 9999 BKN040 QNH3011INS TX32/0221Z TN20/0211Z